sensor_id;sensor_type;location;lat;lon;timestamp;P1;durP1;ratioP1;P2;durP2;ratioP2
6926;SDS011;3503;50.076;8.868;2022-07-04T00:02:12;2.77;;;1.50;;
6926;SDS011;3503;50.076;8.868;2022-07-04T00:17:15;4.07;;;0.90;;
6926;SDS011;3503;50.076;8.868;2022-07-04T00:32:18;3.80;;;1.00;;
6926;SDS011;3503;50.076;8.868;2022-07-04T00:47:23;4.83;;;1.10;;
6926;SDS011;3503;50.076;8.868;2022-07-04T01:02:26;4.67;;;1.40;;
6926;SDS011;3503;50.076;8.868;2022-07-04T01:17:29;5.40;;;1.40;;
6926;SDS011;3503;50.076;8.868;2022-07-04T01:32:32;4.20;;;1.60;;
6926;SDS011;3503;50.076;8.868;2022-07-04T01:47:35;3.00;;;1.27;;
6926;SDS011;3503;50.076;8.868;2022-07-04T02:02:38;4.70;;;1.07;;
6926;SDS011;3503;50.076;8.868;2022-07-04T02:17:41;4.43;;;1.47;;
6926;SDS011;3503;50.076;8.868;2022-07-04T02:32:44;4.33;;;1.33;;
6926;SDS011;3503;50.076;8.868;2022-07-04T02:47:47;3.73;;;1.30;;
6926;SDS011;3503;50.076;8.868;2022-07-04T03:02:49;3.67;;;1.37;;
6926;SDS011;3503;50.076;8.868;2022-07-04T03:17:52;9.73;;;1.80;;
6926;SDS011;3503;50.076;8.868;2022-07-04T03:32:55;3.63;;;1.67;;
6926;SDS011;3503;50.076;8.868;2022-07-04T03:47:58;3.70;;;1.20;;
6926;SDS011;3503;50.076;8.868;2022-07-04T04:03:03;6.47;;;2.17;;
6926;SDS011;3503;50.076;8.868;2022-07-04T04:18:27;4.70;;;1.80;;
6926;SDS011;3503;50.076;8.868;2022-07-04T04:33:29;6.90;;;2.50;;
6926;SDS011;3503;50.076;8.868;2022-07-04T04:48:32;7.50;;;2.30;;
6926;SDS011;3503;50.076;8.868;2022-07-04T05:03:35;8.77;;;2.50;;
6926;SDS011;3503;50.076;8.868;2022-07-04T05:18:38;5.00;;;2.20;;
6926;SDS011;3503;50.076;8.868;2022-07-04T05:33:41;4.43;;;1.80;;
6926;SDS011;3503;50.076;8.868;2022-07-04T05:48:44;7.80;;;1.80;;
6926;SDS011;3503;50.076;8.868;2022-07-04T06:03:47;10.00;;;2.80;;
6926;SDS011;3503;50.076;8.868;2022-07-04T06:18:50;3.77;;;1.50;;
6926;SDS011;3503;50.076;8.868;2022-07-04T06:33:53;3.17;;;1.20;;
6926;SDS011;3503;50.076;8.868;2022-07-04T06:49:13;4.13;;;1.30;;
6926;SDS011;3503;50.076;8.868;2022-07-04T07:04:16;3.57;;;1.10;;
6926;SDS011;3503;50.076;8.868;2022-07-04T07:19:19;5.10;;;1.33;;
6926;SDS011;3503;50.076;8.868;2022-07-04T08:36:48;7.70;;;1.47;;
6926;SDS011;3503;50.076;8.868;2022-07-04T08:51:53;3.87;;;1.10;;
6926;SDS011;3503;50.076;8.868;2022-07-04T09:06:57;3.23;;;1.43;;
6926;SDS011;3503;50.076;8.868;2022-07-04T09:22:03;2.80;;;1.07;;
6926;SDS011;3503;50.076;8.868;2022-07-04T09:37:07;2.90;;;0.90;;
6926;SDS011;3503;50.076;8.868;2022-07-04T09:52:10;3.23;;;1.20;;
6926;SDS011;3503;50.076;8.868;2022-07-04T10:07:13;4.93;;;1.10;;
6926;SDS011;3503;50.076;8.868;2022-07-04T10:22:33;6.30;;;1.07;;
6926;SDS011;3503;50.076;8.868;2022-07-04T10:53:10;5.93;;;1.40;;
6926;SDS011;3503;50.076;8.868;2022-07-04T11:08:13;2.73;;;1.10;;
6926;SDS011;3503;50.076;8.868;2022-07-04T11:23:17;2.73;;;1.03;;
6926;SDS011;3503;50.076;8.868;2022-07-04T11:38:20;4.20;;;1.00;;
6926;SDS011;3503;50.076;8.868;2022-07-04T11:53:23;2.27;;;0.77;;
6926;SDS011;3503;50.076;8.868;2022-07-04T12:08:26;3.53;;;0.83;;
6926;SDS011;3503;50.076;8.868;2022-07-04T12:23:29;10.17;;;0.97;;
6926;SDS011;3503;50.076;8.868;2022-07-04T12:38:34;1.63;;;0.50;;
6926;SDS011;3503;50.076;8.868;2022-07-04T12:53:39;1.53;;;0.40;;
6926;SDS011;3503;50.076;8.868;2022-07-04T13:08:42;3.27;;;0.63;;
6926;SDS011;3503;50.076;8.868;2022-07-04T13:23:45;3.00;;;0.80;;
6926;SDS011;3503;50.076;8.868;2022-07-04T13:38:48;2.00;;;0.57;;
6926;SDS011;3503;50.076;8.868;2022-07-04T13:53:51;3.23;;;0.40;;
6926;SDS011;3503;50.076;8.868;2022-07-04T14:08:54;9.77;;;0.97;;
6926;SDS011;3503;50.076;8.868;2022-07-04T14:23:57;3.70;;;0.60;;
6926;SDS011;3503;50.076;8.868;2022-07-04T14:39:00;1.77;;;0.97;;
6926;SDS011;3503;50.076;8.868;2022-07-04T14:54:03;8.23;;;0.77;;
6926;SDS011;3503;50.076;8.868;2022-07-04T15:09:06;1.47;;;0.50;;
6926;SDS011;3503;50.076;8.868;2022-07-04T15:24:09;1.53;;;0.50;;
6926;SDS011;3503;50.076;8.868;2022-07-04T15:39:16;1.73;;;0.63;;
6926;SDS011;3503;50.076;8.868;2022-07-04T15:54:19;1.03;;;0.40;;
6926;SDS011;3503;50.076;8.868;2022-07-04T16:09:22;5.70;;;0.80;;
6926;SDS011;3503;50.076;8.868;2022-07-04T16:24:25;2.80;;;0.87;;
6926;SDS011;3503;50.076;8.868;2022-07-04T16:39:31;2.60;;;0.70;;
6926;SDS011;3503;50.076;8.868;2022-07-04T16:54:34;4.00;;;0.80;;
6926;SDS011;3503;50.076;8.868;2022-07-04T17:09:37;1.90;;;0.60;;
6926;SDS011;3503;50.076;8.868;2022-07-04T17:24:40;6.47;;;0.70;;
6926;SDS011;3503;50.076;8.868;2022-07-04T17:39:43;2.50;;;0.60;;
6926;SDS011;3503;50.076;8.868;2022-07-04T17:54:46;9.63;;;0.90;;
6926;SDS011;3503;50.076;8.868;2022-07-04T18:09:49;2.13;;;0.90;;
6926;SDS011;3503;50.076;8.868;2022-07-04T18:24:53;2.20;;;0.60;;
6926;SDS011;3503;50.076;8.868;2022-07-04T18:39:56;2.20;;;0.63;;
6926;SDS011;3503;50.076;8.868;2022-07-04T18:54:59;4.17;;;1.40;;
6926;SDS011;3503;50.076;8.868;2022-07-04T19:10:05;10.07;;;1.50;;
6926;SDS011;3503;50.076;8.868;2022-07-04T19:25:10;2.23;;;1.00;;
6926;SDS011;3503;50.076;8.868;2022-07-04T19:40:13;6.40;;;0.97;;
6926;SDS011;3503;50.076;8.868;2022-07-04T19:55:16;2.10;;;0.70;;
6926;SDS011;3503;50.076;8.868;2022-07-04T20:10:19;5.70;;;1.40;;
6926;SDS011;3503;50.076;8.868;2022-07-04T20:25:22;4.00;;;2.60;;
6926;SDS011;3503;50.076;8.868;2022-07-04T20:40:27;2.67;;;1.30;;
6926;SDS011;3503;50.076;8.868;2022-07-04T20:55:32;2.83;;;1.43;;
6926;SDS011;3503;50.076;8.868;2022-07-04T21:10:35;2.40;;;1.17;;
6926;SDS011;3503;50.076;8.868;2022-07-04T21:25:39;2.00;;;1.10;;
6926;SDS011;3503;50.076;8.868;2022-07-04T21:40:48;7.67;;;1.33;;
6926;SDS011;3503;50.076;8.868;2022-07-04T21:55:51;4.90;;;1.50;;
6926;SDS011;3503;50.076;8.868;2022-07-04T22:10:54;3.53;;;1.30;;
6926;SDS011;3503;50.076;8.868;2022-07-04T22:25:57;6.13;;;2.00;;
6926;SDS011;3503;50.076;8.868;2022-07-04T22:41:00;7.07;;;1.27;;
6926;SDS011;3503;50.076;8.868;2022-07-04T22:56:03;3.97;;;1.27;;
6926;SDS011;3503;50.076;8.868;2022-07-04T23:11:06;4.73;;;1.40;;
6926;SDS011;3503;50.076;8.868;2022-07-04T23:26:09;5.20;;;1.40;;
6926;SDS011;3503;50.076;8.868;2022-07-04T23:41:12;3.87;;;1.43;;
6926;SDS011;3503;50.076;8.868;2022-07-04T23:56:14;4.47;;;0.97;;
